• Join FlightAware (Why Join?)
  • Login
  • US Flag 
03:39AM EDT


 

Airport Tracker/Info


-or-


 

Live Flight TrackerFlight Track Log ✈ BJS339 ✈ 28-Dec-2013 ✈ KFLL - TBPB / BGI

Flight Track Log - Related Links

Times and Time Zones

All times are in EST time to prevent confusion due to time zone crossing. See the BJS339 flight status page for this flight to view local times or setup timezone preferences in your user account.

Time Position Orientation Groundspeed Altitude Reporting Facility
EST Latitude Longitude Course Direction KTS MPH feet Rate Location/Type
11:41AM 26.0728 -80.1436 77° East 161 185 700  Level Miami Center
11:42AM 26.0775 -80.1206 77° East 207 238 1,600 2,460 Climbing Miami Center
11:43AM 26.0853 -80.0422 84° East 261 300 4,300 1,800 Climbing Miami Center
11:43AM 26.0994 -79.9753 77° East 263 303 4,900 1,140 Climbing Miami Center
11:44AM 26.0997 -79.9569 89° East 264 304 5,500 2,280 Climbing Miami Center
11:44AM 26.1011 -79.8944 89° East 272 313 7,200 2,280 Climbing Miami Center
11:45AM 26.0931 -79.8736 113° Southeast 278 320 7,900 2,100 Climbing Miami Center
11:45AM 26.0839 -79.8083 99° East 286 329 9,300 2,160 Climbing Miami Center
11:46AM 26.0739 -79.7850 116° Southeast 296 341 10,100 1,980 Climbing Miami Center
11:46AM 26.0628 -79.7131 100° East 330 380 11,300 1,860 Climbing Miami Center
11:47AM 26.0461 -79.6133 101° East 336 387 13,300 2,100 Climbing Miami Center
11:48AM 26.0228 -79.5086 104° East 336 387 15,600 2,220 Climbing Miami Center
11:49AM 25.9978 -79.3994 104° East 347 399 17,800 2,280 Climbing Miami Center
11:50AM 25.9767 -79.2789 101° East 380 437 20,200 2,100 Climbing Miami Center
11:51AM 25.9597 -79.1631 99° East 380 437 22,100 1,920 Climbing Miami Center
11:52AM 25.9367 -79.0400 102° East 393 452 24,100 1,800 Climbing Miami Center
11:53AM 25.9111 -78.9150 103° East 399 459 25,700 1,500 Climbing Miami Center
11:54AM 25.8817 -78.7875 104° East 412 474 27,100 1,380 Climbing Miami Center
11:55AM 25.8603 -78.6556 100° East 422 486 28,500 1,380 Climbing Miami Center
11:56AM 25.8117 -78.5322 114° Southeast 429 494 29,900 1,200 Climbing Miami Center
11:57AM 25.7481 -78.4161 121° Southeast 435 501 30,900 900 Climbing Miami Center
11:58AM 25.6844 -78.2931 120° Southeast 445 512 31,800 780 Climbing Miami Center
11:59AM 25.6269 -78.1864 121° Southeast 450 518 32,500 780 Climbing Miami Center
12:00PM 25.5611 -78.0658 121° Southeast 455 524 33,400 900 Climbing Miami Center
12:01PM 25.4953 -77.9431 121° Southeast 455 524 34,400 960 Climbing Miami Center
12:02PM 25.4314 -77.8253 121° Southeast 450 518 35,400 960 Climbing Miami Center
12:03PM 25.3653 -77.7028 121° Southeast 450 518 36,400 960 Climbing Miami Center
12:04PM 25.2989 -77.5828 121° Southeast 450 518 37,400 780 Climbing Miami Center
12:05PM 25.2328 -77.4514 119° Southeast 450 518 38,000 540 Climbing Miami Center
12:06PM 25.1661 -77.3294 121° Southeast 455 524 38,500 480 Climbing Miami Center
12:07PM 25.0956 -77.2100 123° Southeast 455 524 39,000 240 Climbing Miami Center
12:08PM 25.0267 -77.0881 122° Southeast 460 529 39,000  Level Miami Center
12:09PM 24.9600 -76.9664 121° Southeast 460 529 39,000  Level Miami Center
12:10PM 24.8889 -76.8381 121° Southeast 465 535 39,000  Level Miami Center
12:11PM 24.8178 -76.7122 122° Southeast 476 548 39,000  Level Miami Center
12:12PM 24.7467 -76.5864 122° Southeast 481 554 39,000  Level Miami Center
12:13PM 24.6858 -76.4744 121° Southeast 481 554 39,000  Level Miami Center
12:14PM 24.6122 -76.3467 122° Southeast 481 554 39,000  Level Miami Center
12:15PM 24.5428 -76.2236 122° Southeast 476 548 39,000  Level Miami Center
12:16PM 24.4733 -76.1008 122° Southeast 476 548 39,000  Level Miami Center
12:17PM 24.4014 -75.9711 121° Southeast 481 554 39,000  Level Miami Center
12:18PM 24.3317 -75.8486 122° Southeast 481 554 39,000  Level Miami Center
12:19PM 24.2617 -75.7214 121° Southeast 481 554 39,000  Level Miami Center
12:20PM 24.1875 -75.5944 123° Southeast 481 554 39,000  Level Miami Center
12:21PM 24.1111 -75.4586 122° Southeast 476 548 39,000  Level Miami Center
12:22PM 24.0367 -75.3322 123° Southeast 476 548 39,000  Level Miami Center
12:23PM 23.9664 -75.2081 122° Southeast 476 548 39,000  Level Miami Center
12:24PM 23.8961 -75.0861 122° Southeast 476 548 39,000  Level Miami Center
12:25PM 23.8236 -74.9622 123° Southeast 476 548 39,000  Level Miami Center
12:26PM 23.7531 -74.8383 128° Southeast 476 548 39,000  Level Miami Center
12:27PM 23.7475 -74.8544 128° Southeast  Level FlightAware Approximate
12:27PM 23.6844 -74.7194 122° Southeast 476 548 39,000  Level Miami Center
12:28PM 23.6117 -74.5981 123° Southeast 476 548 39,000  Level Miami Center
12:29PM 23.5386 -74.4769 123° Southeast 476 548 39,000  Level Miami Center
12:30PM 23.4700 -74.3606 123° Southeast 476 548 39,000  Level Miami Center
12:32PM 23.3300 -74.1214 123° Southeast 471 542 39,000  Level Miami Center
12:34PM 23.1939 -73.8825 122° Southeast 471 542 39,000  Level Miami Center
12:35PM 23.1183 -73.7667 125° Southeast 471 542 39,000  Level Miami Center
12:36PM 23.0489 -73.6464 122° Southeast 471 542 39,000  Level Miami Center
12:37PM 22.9817 -73.5286 122° Southeast 471 542 39,000  Level Miami Center
12:38PM 22.9078 -73.4064 123° Southeast 476 548 39,000  Level Miami Center
12:39PM 22.9239 -73.4726 123° Southeast  Level FlightAware Approximate
12:39PM 22.8450 -73.3114 126° Southeast 476 548 39,000  Level Miami Center
12:40PM 22.8572 -73.3610 123° Southeast  Level FlightAware Approximate
12:40PM 22.7689 -73.1806 122° Southeast 476 548 39,000  Level Miami Center
12:41PM 22.7011 -73.0586 121° Southeast 476 548 39,000  Level Miami Center
12:42PM 22.6314 -72.9414 123° Southeast 469 540 39,000  Level Miami Center
12:43PM 22.5592 -72.8222 123° Southeast 469 540 39,000  Level Miami Center
12:44PM 22.4850 -72.7056 125° Southeast 475 547 39,000  Level Miami Center
12:45PM 22.4150 -72.5864 122° Southeast 475 547 39,000  Level Miami Center
12:46PM 22.3428 -72.4678 123° Southeast 475 547 39,000  Level Miami Center
12:47PM 22.2725 -72.3511 123° Southeast 475 547 39,000  Level Miami Center
12:48PM 22.2000 -72.2325 123° Southeast 475 547 39,000  Level Miami Center
12:49PM 22.1253 -72.1142 124° Southeast 475 547 39,000  Level Miami Center
12:50PM 22.0569 -71.9981 122° Southeast 475 547 39,000  Level Miami Center
12:51PM 21.9842 -71.8775 123° Southeast 475 547 39,000  Level Miami Center
12:52PM 21.9114 -71.7597 124° Southeast 475 547 39,000  Level Miami Center
12:53PM 21.8389 -71.6439 124° Southeast 475 547 39,000  Level Miami Center
12:54PM 21.7678 -71.5261 123° Southeast 475 547 39,000  Level Miami Center
12:55PM 21.6969 -71.4086 123° Southeast 475 547 39,000  Level Miami Center
12:56PM 21.6239 -71.2911 124° Southeast 475 547 39,000  Level Miami Center
12:57PM 21.5550 -71.1733 122° Southeast 470 541 39,000  Level Miami Center
12:58PM 21.4753 -71.0519 125° Southeast 470 541 39,000  Level Miami Center
12:59PM 21.3994 -70.9239 122° Southeast 451 519 39,000  Level Miami Center
01:00PM 21.3261 -70.8092 124° Southeast 461 531 39,000  Level Miami Center
01:01PM 21.2528 -70.6947 124° Southeast 461 531 39,000  Level Miami Center
01:02PM 21.1814 -70.5800 124° Southeast 461 531 39,000  Level Miami Center
01:03PM 21.1100 -70.4658 124° Southeast 461 531 39,000  Level Miami Center
01:04PM 21.0364 -70.3492 124° Southeast 466 536 39,000  Level Miami Center
01:05PM 20.9625 -70.2308 124° Southeast 476 548 39,000  Level Miami Center
01:06PM 20.8886 -70.1125 124° Southeast 476 548 39,000  Level Miami Center
01:07PM 20.8147 -69.9964 124° Southeast 476 548 39,000  Level Miami Center
01:08PM 20.7408 -69.8806 124° Southeast 476 548 39,000  Level Miami Center
01:09PM 20.6667 -69.7625 124° Southeast 476 548 39,000  Level Miami Center
01:10PM 20.5925 -69.6447 124° Southeast 476 548 39,000  Level Miami Center
01:11PM 20.5161 -69.5272 125° Southeast 476 548 39,000  Level Miami Center
01:12PM 20.4419 -69.4117 124° Southeast 476 548 39,000  Level Miami Center
01:13PM 20.3675 -69.2922 124° Southeast 476 548 39,000  Level Miami Center
01:14PM 20.2931 -69.1750 124° Southeast 476 548 39,000  Level Miami Center
01:15PM 20.2167 -69.0600 125° Southeast 476 548 39,000  Level Miami Center
01:16PM 20.1442 -68.9428 123° Southeast 476 548 39,000  Level Miami Center
01:17PM 20.0675 -68.8306 126° Southeast 476 548 39,000  Level Miami Center
01:18PM 19.9928 -68.7139 124° Southeast 476 548 39,000  Level Miami Center
01:19PM 19.9222 -68.5969 123° Southeast 476 548 39,000  Level Miami Center
01:20PM 19.8475 -68.4847 125° Southeast 476 548 39,000  Level Miami Center
01:21PM 19.7728 -68.3683 124° Southeast 476 548 39,000  Level Miami Center
01:22PM 19.7167 -68.3000 131° Southeast 470 541 39,000  Level San Juan Center
01:23PM 19.6333 -68.1833 127° Southeast 470 541 39,000  Level San Juan Center
01:24PM 19.5667 -68.0667 121° Southeast 470 541 39,000  Level San Juan Center
01:25PM 19.4667 -67.9833 142° Southeast 460 529 39,000  Level San Juan Center
01:26PM 19.3500 -67.9000 146° Southeast 470 541 39,000  Level San Juan Center
01:27PM 19.2500 -67.8167 142° Southeast 470 541 39,000  Level San Juan Center
01:28PM 19.1500 -67.7167 137° Southeast 470 541 39,000  Level San Juan Center
01:29PM 19.0500 -67.6333 142° Southeast 460 529 39,000  Level San Juan Center
01:30PM 18.9333 -67.5333 141° Southeast 470 541 39,000  Level San Juan Center
01:31PM 18.8333 -67.4333 137° Southeast 460 529 39,000  Level San Juan Center
01:32PM 18.7333 -67.3500 142° Southeast 460 529 39,000  Level San Juan Center
01:33PM 18.6500 -67.2667 137° Southeast 460 529 39,000  Level San Juan Center
01:34PM 18.5500 -67.1833 142° Southeast 460 529 39,000  Level San Juan Center
01:35PM 18.4500 -67.1000 142° Southeast 460 529 39,000  Level San Juan Center
01:36PM 18.3500 -67.0000 136° Southeast 460 529 39,000  Level San Juan Center
01:37PM 18.2500 -66.9167 142° Southeast 460 529 39,000  Level San Juan Center
01:38PM 18.1500 -66.8333 142° Southeast 460 529 39,000  Level San Juan Center
01:39PM 18.0500 -66.7500 142° Southeast 470 541 39,000  Level San Juan Center
01:40PM 17.9500 -66.6667 142° Southeast 460 529 39,000  Level San Juan Center
01:41PM 17.8500 -66.5833 142° Southeast 460 529 39,000  Level San Juan Center
01:42PM 17.7500 -66.4833 136° Southeast 460 529 39,000  Level San Juan Center
01:43PM 17.6500 -66.4000 142° Southeast 460 529 39,000  Level San Juan Center
01:44PM 17.5500 -66.3167 142° Southeast 460 529 39,000  Level San Juan Center
01:45PM 17.4500 -66.2333 142° Southeast 460 529 39,000  Level San Juan Center
01:46PM 17.3667 -66.1500 136° Southeast 460 529 39,000  Level San Juan Center
01:47PM 17.2667 -66.0667 141° Southeast 460 529 39,000  Level San Juan Center
01:48PM 17.1667 -65.9833 141° Southeast 460 529 39,000  Level San Juan Center
01:49PM 17.0667 -65.9000 141° Southeast 460 529 39,000  Level San Juan Center
01:50PM 16.9667 -65.8167 141° Southeast 460 529 39,000  Level San Juan Center
01:51PM 16.8667 -65.7167 136° Southeast 460 529 39,000  Level San Juan Center
01:52PM 16.7667 -65.6333 141° Southeast 460 529 39,000  Level San Juan Center
01:53PM 16.6667 -65.5500 141° Southeast 460 529 39,000  Level San Juan Center
01:54PM 16.5667 -65.4667 141° Southeast 470 541 39,000  Level San Juan Center
01:55PM 16.4667 -65.3833 141° Southeast 470 541 39,000  Level San Juan Center
01:56PM 16.3667 -65.3000 141° Southeast 460 529 39,000  Level San Juan Center
01:57PM 16.2667 -65.2167 141° Southeast 470 541 39,000  Level San Juan Center
01:58PM 16.1500 -65.1167 141° Southeast 480 552 39,000  Level San Juan Center
01:59PM 16.0500 -65.0333 141° Southeast 470 541 39,000  Level San Juan Center
02:00PM 15.9500 -64.9500 141° Southeast 460 529 39,000  Level San Juan Center
02:01PM 15.8333 -64.8667 146° Southeast 470 541 39,000  Level San Juan Center
02:02PM 15.7667 -64.7833 130° Southeast 450 518 39,000  Level San Juan Center
02:03PM 15.6667 -64.7000 141° Southeast 470 541 39,000  Level San Juan Center
02:04PM 15.5667 -64.6167 141° Southeast 470 541 39,000  Level San Juan Center
02:05PM 15.4333 -64.5167 144° Southeast 490 564 39,000  Level San Juan Center
02:06PM 15.3500 -64.4500 142° Southeast 460 529 39,000  Level San Juan Center
02:07PM 15.2500 -64.3500 136° Southeast 480 552 39,000  Level San Juan Center
02:08PM 15.1500 -64.2667 141° Southeast 470 541 39,000  Level San Juan Center
02:09PM 15.0500 -64.1833 141° Southeast 480 552 39,000  Level San Juan Center
02:11PM 15.0377 -64.0412 95° East  Level FlightAware Approximate
02:18PM 14.7028 -63.2452 114° Southeast  Level Estimated
02:19PM 14.6575 -63.1304 112° Southeast  Level FlightAware Approximate
02:20PM 14.6122 -63.0158 112° Southeast  Level FlightAware Approximate
02:21PM 14.5668 -62.9011 112° Southeast  Level FlightAware Approximate
02:22PM 14.5213 -62.7865 112° Southeast  Level FlightAware Approximate
02:23PM 14.4758 -62.6720 112° Southeast  Level FlightAware Approximate
02:24PM 14.4302 -62.5575 112° Southeast  Level FlightAware Approximate
02:25PM 14.3846 -62.4431 112° Southeast  Level FlightAware Approximate
02:26PM 14.3389 -62.3287 112° Southeast  Level FlightAware Approximate
02:27PM 14.2932 -62.2144 112° Southeast  Level FlightAware Approximate
02:28PM 14.2474 -62.1001 112° Southeast  Level FlightAware Approximate
02:29PM 14.2016 -61.9858 112° Southeast  Level FlightAware Approximate
02:30PM 14.1557 -61.8716 113° Southeast  Level FlightAware Approximate
02:31PM 14.1097 -61.7574 113° Southeast  Level FlightAware Approximate
02:32PM 14.0592 -61.6454 115° Southeast  Level Estimated
02:33PM 14.0083 -61.5335 115° Southeast  Level FlightAware Approximate
02:34PM 13.9574 -61.4217 115° Southeast  Level FlightAware Approximate
02:35PM 13.9064 -61.3099 115° Southeast  Level FlightAware Approximate
02:36PM 13.8554 -61.1982 115° Southeast  Level FlightAware Approximate
02:37PM 13.8047 -61.0863 115° Southeast  Level Estimated
02:38PM 13.7537 -60.9746 115° Southeast  Level FlightAware Approximate
02:39PM 13.7027 -60.8629 115° Southeast  Level FlightAware Approximate
02:40PM 13.6517 -60.7513 115° Southeast  Level FlightAware Approximate
02:41PM 13.6006 -60.6398 115° Southeast  Level FlightAware Approximate
02:42PM 13.5494 -60.5282 115° Southeast  Level FlightAware Approximate
02:43PM 13.4982 -60.4168 115° Southeast  Level FlightAware Approximate
02:44PM 13.4470 -60.3054 115° Southeast  Level FlightAware Approximate
02:45PM 13.3957 -60.1940 115° Southeast  Level FlightAware Approximate
02:46PM 13.3443 -60.0826 115° Southeast  Level FlightAware Approximate
02:47PM 13.2929 -59.9714 115° Southeast  Level FlightAware Approximate
02:48PM 13.2415 -59.8601 115° Southeast  Level FlightAware Approximate
02:49PM 13.1900 -59.7490 115° Southeast  Level FlightAware Approximate
02:50PM 13.1384 -59.6378 115° Southeast  Level FlightAware Approximate
02:51PM 13.0868 -59.5267 115° Southeast  Level FlightAware Approximate
02:52PM 13.0746 -59.4925 90° East  Level Estimated
02:53PM 13.0746 -59.4925 90° East  Level Estimated
02:54PM 13.0746 -59.4925 90° East  Level Estimated
02:55PM 13.0746 -59.4925 90° East  Level Estimated
02:56PM 13.0746 -59.4925 90° East  Level Estimated
02:57PM 13.0746 -59.4925 90° East  Level Estimated
02:58PM 13.0746 -59.4925 90° East  Level Estimated
02:59PM 13.0746 -59.4925 90° East  Level Estimated
03:00PM 13.0746 -59.4925 90° East  Level Estimated
03:01PM 13.0746 -59.4925 90° East  Level Estimated
03:02PM 13.0746 -59.4925 90° East  Level Estimated
03:03PM 13.0746 -59.4925 90° East  Level Estimated
03:04PM 13.0746 -59.4925 90° East  Level Estimated
03:05PM 13.0746 -59.4925 90° East  Level Estimated
03:06PM 13.0746 -59.4925 90° East  Level Estimated
03:07PM 13.0746 -59.4925 90° East  Level Estimated
03:08PM 13.0746 -59.4925 90° East  Level Estimated
03:09PM 13.0746 -59.4925 90° East  Level Estimated
03:10PM 13.0746 -59.4925 90° East  Level Estimated
03:11PM 13.0746 -59.4925 90° East  Level Estimated
03:12PM 13.0746 -59.4925 90° East  Level Estimated
03:13PM 13.0746 -59.4925 90° East  Level Estimated
03:14PM 13.0746 -59.4925 90° East  Level Estimated
03:15PM 13.0746 -59.4925 90° East  Level Estimated